Aaron, Kentucky
Current Conditions -  °F | °C
As of 1:56 AM on Friday 31 Oct 2014 (Local Time) from KEKQ Reporting Station
Overcast Overcast  
Wind Chill: 41°   Ceiling: 12000
Heat Index: 41°   Visibility: 9mi
Dew Point: 40°   Wind: 0mph
Humidity: 96%   Direction: NA
Pressure: 30.04"   Gusts: NA
Location:  36.6815°N, 85.1287°W
Report Text: KEKQ 310656Z AUTO 00000KT 9SM FEW100 OVC120 05/04 A3004 RMK AO2 TSNO T00500044 OVC V BKN SLP177
Loading
Personal Weather Stations






























Interactive Weather Map
Tropical Storm Tracking
New forecast layout! Learn more

10-Day Weather Forecast

Advertisements
Track Severe Weather on mobile